createdAt,value
2019-04-29T00:01:36.843Z,13.99
2019-04-29T00:04:06.734Z,13.98
2019-04-29T00:06:36.687Z,13.96
2019-04-29T00:09:10.607Z,13.94
2019-04-29T00:11:40.526Z,13.92
2019-04-29T00:14:10.686Z,13.91
2019-04-29T00:16:59.138Z,13.93
2019-04-29T00:19:50.833Z,13.95
2019-04-29T00:22:20.908Z,13.90
2019-04-29T00:24:50.699Z,13.87
2019-04-29T00:27:20.458Z,13.93
2019-04-29T00:29:50.171Z,13.89
2019-04-29T00:32:19.959Z,13.87
2019-04-29T00:34:49.885Z,13.78
2019-04-29T00:37:44.463Z,13.72
2019-04-29T00:40:48.480Z,13.80
2019-04-29T00:43:49.527Z,13.82
2019-04-29T00:46:19.610Z,13.74
2019-04-29T00:48:49.255Z,13.66
2019-04-29T00:51:19.204Z,13.69
2019-04-29T00:53:50.790Z,13.59
2019-04-29T00:56:20.554Z,13.61
2019-04-29T00:58:50.539Z,13.62
2019-04-29T01:01:24.245Z,13.67
2019-04-29T01:03:53.987Z,13.68
2019-04-29T01:06:24.104Z,13.67
2019-04-29T01:08:53.968Z,13.67
2019-04-29T01:11:24.067Z,13.66
2019-04-29T01:13:53.877Z,13.67
2019-04-29T01:16:23.800Z,13.62
2019-04-29T01:18:53.722Z,13.60
2019-04-29T01:21:24.219Z,13.53
2019-04-29T01:23:54.126Z,13.39
2019-04-29T01:26:52.142Z,13.07
2019-04-29T01:29:22.612Z,12.80
2019-04-29T01:31:52.514Z,12.72
2019-04-29T01:34:26.700Z,12.65
2019-04-29T01:36:56.639Z,12.64
2019-04-29T01:39:34.724Z,12.49
2019-04-29T01:42:13.800Z,12.37
2019-04-29T01:44:43.650Z,12.42
2019-04-29T01:47:13.561Z,12.32
2019-04-29T01:49:43.514Z,12.39
2019-04-29T01:52:13.490Z,12.32
2019-04-29T01:54:43.348Z,12.26
2019-04-29T01:57:13.222Z,12.29
2019-04-29T01:59:43.044Z,12.34
2019-04-29T02:02:12.922Z,12.42
2019-04-29T02:04:42.789Z,12.31
2019-04-29T02:07:12.498Z,12.29
2019-04-29T02:10:06.583Z,12.16
2019-04-29T02:12:36.385Z,11.97
2019-04-29T02:15:06.816Z,11.82
2019-04-29T02:17:36.743Z,11.88
2019-04-29T02:20:07.082Z,11.65
2019-04-29T02:22:48.146Z,11.54
2019-04-29T02:25:39.450Z,11.63
2019-04-29T02:28:09.271Z,11.71
2019-04-29T02:30:47.087Z,12.04
2019-04-29T02:33:17.181Z,12.16
2019-04-29T02:35:47.245Z,12.17
2019-04-29T02:38:35.970Z,12.26
2019-04-29T02:41:18.989Z,12.30
2019-04-29T02:43:50.327Z,12.33
2019-04-29T02:46:20.149Z,12.35
2019-04-29T02:48:50.542Z,12.37
2019-04-29T02:51:42.395Z,12.37
2019-04-29T02:54:12.275Z,12.31
2019-04-29T02:56:43.798Z,12.31
2019-04-29T02:59:14.838Z,12.41
2019-04-29T03:02:03.790Z,12.56
2019-04-29T03:04:36.807Z,12.71
2019-04-29T03:07:06.597Z,12.72
2019-04-29T03:09:45.554Z,12.82
2019-04-29T03:12:15.438Z,12.89
2019-04-29T03:14:45.476Z,12.90
2019-04-29T03:17:18.665Z,12.94
2019-04-29T03:20:05.217Z,12.91
2019-04-29T03:22:35.405Z,12.87
2019-04-29T03:25:05.725Z,12.90
2019-04-29T03:27:35.535Z,12.86
2019-04-29T03:30:05.841Z,12.86
2019-04-29T03:32:35.556Z,12.88
2019-04-29T03:35:05.697Z,12.77
2019-04-29T03:37:35.661Z,12.81
2019-04-29T03:40:06.337Z,12.86
2019-04-29T03:42:36.154Z,12.85
2019-04-29T03:45:06.549Z,12.89
2019-04-29T03:47:36.307Z,12.92
2019-04-29T03:50:06.342Z,12.89
2019-04-29T03:52:36.181Z,12.75
2019-04-29T03:55:06.067Z,12.54
2019-04-29T03:57:37.437Z,12.35
2019-04-29T04:00:08.967Z,12.41
2019-04-29T04:03:00.394Z,12.38
2019-04-29T04:05:41.880Z,12.45
2019-04-29T04:08:18.661Z,12.56
2019-04-29T04:10:48.357Z,12.71
2019-04-29T04:13:18.224Z,12.70
2019-04-29T04:15:48.096Z,12.76
2019-04-29T04:18:23.458Z,12.89
2019-04-29T04:20:53.137Z,12.98
2019-04-29T04:23:22.983Z,13.07
2019-04-29T04:25:52.997Z,13.16
2019-04-29T04:28:22.850Z,13.30
2019-04-29T04:30:52.774Z,13.29
2019-04-29T04:33:22.642Z,13.18
2019-04-29T04:35:53.921Z,13.31
2019-04-29T04:38:23.693Z,13.33
2019-04-29T04:41:03.718Z,13.40
2019-04-29T04:43:33.606Z,13.10
2019-04-29T04:46:03.471Z,13.12
2019-04-29T04:48:34.632Z,13.32
2019-04-29T04:51:04.430Z,13.51
2019-04-29T04:53:34.152Z,13.62
2019-04-29T04:56:04.118Z,13.82
2019-04-29T04:58:33.869Z,14.02
2019-04-29T05:01:03.929Z,14.20
2019-04-29T05:03:33.699Z,14.46
2019-04-29T05:06:03.618Z,14.59
2019-04-29T05:08:33.803Z,14.75
2019-04-29T05:11:03.664Z,14.99
2019-04-29T05:13:33.564Z,15.07
2019-04-29T05:16:03.546Z,15.23
2019-04-29T05:18:33.227Z,15.49
2019-04-29T05:21:03.014Z,15.71
2019-04-29T05:23:32.947Z,15.95
2019-04-29T05:26:02.652Z,16.20
2019-04-29T05:28:32.580Z,16.22
2019-04-29T05:31:02.431Z,16.61
2019-04-29T05:33:32.404Z,16.86
2019-04-29T05:36:20.303Z,17.06
2019-04-29T05:38:53.555Z,17.07
2019-04-29T05:41:25.466Z,17.22
2019-04-29T05:44:05.839Z,17.23
2019-04-29T05:46:56.988Z,17.26
2019-04-29T05:49:37.475Z,17.41
2019-04-29T05:52:34.720Z,17.44
2019-04-29T05:55:02.735Z,17.56
2019-04-29T05:57:32.576Z,17.49
2019-04-29T06:00:02.382Z,17.19
2019-04-29T06:02:38.545Z,17.18
2019-04-29T06:05:05.858Z,17.23
2019-04-29T06:07:36.111Z,17.26
2019-04-29T06:10:06.961Z,17.05
2019-04-29T06:12:36.696Z,17.29
2019-04-29T06:15:07.985Z,17.36
2019-04-29T06:17:39.938Z,17.44
2019-04-29T06:20:13.182Z,17.74
2019-04-29T06:22:41.842Z,17.24
2019-04-29T06:25:12.154Z,17.20
2019-04-29T06:27:42.040Z,17.42
2019-04-29T06:30:11.946Z,17.90
2019-04-29T06:32:41.817Z,18.20
2019-04-29T06:35:14.271Z,18.21
2019-04-29T06:37:44.568Z,18.37
2019-04-29T06:40:14.712Z,18.55
2019-04-29T06:42:49.462Z,19.04
2019-04-29T06:45:18.742Z,19.26
2019-04-29T06:47:48.573Z,19.27
2019-04-29T06:50:18.498Z,19.44
2019-04-29T06:52:48.425Z,19.52
2019-04-29T06:55:18.175Z,19.36
2019-04-29T06:57:48.089Z,19.21
2019-04-29T07:00:22.159Z,19.45
2019-04-29T07:02:51.030Z,19.39
2019-04-29T07:05:20.911Z,19.08
2019-04-29T07:07:50.681Z,19.70
2019-04-29T07:10:21.776Z,20.18
2019-04-29T07:12:52.105Z,20.29
2019-04-29T07:15:22.381Z,20.03
2019-04-29T07:17:52.149Z,20.13
2019-04-29T07:20:22.230Z,20.13
2019-04-29T07:22:52.071Z,20.19
2019-04-29T07:25:24.568Z,20.19
2019-04-29T07:27:54.377Z,20.23
2019-04-29T07:30:24.302Z,20.06
2019-04-29T07:32:54.105Z,20.06
2019-04-29T07:35:23.957Z,19.85
2019-04-29T07:37:53.629Z,20.03
2019-04-29T07:40:23.844Z,19.97
2019-04-29T07:42:53.935Z,19.95
2019-04-29T07:45:44.412Z,19.95
2019-04-29T07:48:12.374Z,19.60
2019-04-29T07:50:43.541Z,19.55
2019-04-29T07:53:13.298Z,19.32
2019-04-29T07:55:43.205Z,19.11
2019-04-29T07:58:13.184Z,19.13
2019-04-29T08:00:44.692Z,19.20
2019-04-29T08:03:14.832Z,19.29
2019-04-29T08:05:46.087Z,19.14
2019-04-29T08:08:16.693Z,19.30
2019-04-29T08:10:56.115Z,19.35
2019-04-29T08:13:21.504Z,19.48
2019-04-29T08:15:51.400Z,19.65
2019-04-29T08:18:21.212Z,19.81
2019-04-29T08:20:51.377Z,19.93
2019-04-29T08:23:22.350Z,20.13
2019-04-29T08:25:52.161Z,20.00
2019-04-29T08:28:21.882Z,19.94
2019-04-29T08:30:53.223Z,20.09
2019-04-29T08:33:22.922Z,20.27
2019-04-29T08:35:52.752Z,20.40
2019-04-29T08:38:22.679Z,20.44
2019-04-29T08:40:52.569Z,20.22
2019-04-29T08:43:52.565Z,20.07
2019-04-29T08:46:30.608Z,20.04
2019-04-29T08:49:06.028Z,20.20
2019-04-29T08:51:34.768Z,19.98
2019-04-29T08:54:04.848Z,20.07
2019-04-29T08:56:34.563Z,20.13
2019-04-29T08:59:06.052Z,20.10
2019-04-29T09:01:35.951Z,20.13
2019-04-29T09:04:05.971Z,20.29
2019-04-29T09:06:37.162Z,20.48
2019-04-29T09:09:10.645Z,20.74
2019-04-29T09:11:39.320Z,20.73
2019-04-29T09:14:12.718Z,20.76
2019-04-29T09:16:41.135Z,20.58
2019-04-29T09:19:10.940Z,20.22
2019-04-29T09:21:43.873Z,20.30
2019-04-29T09:24:13.699Z,20.45
2019-04-29T09:26:49.803Z,20.28
2019-04-29T09:29:33.316Z,20.28
2019-04-29T09:32:04.820Z,20.36
2019-04-29T09:34:34.657Z,20.58
2019-04-29T09:37:04.738Z,20.86
2019-04-29T09:39:43.450Z,20.85
2019-04-29T09:42:30.875Z,20.85
2019-04-29T09:45:09.683Z,20.67
2019-04-29T09:47:39.597Z,20.89
2019-04-29T09:50:09.855Z,20.69
2019-04-29T09:52:39.701Z,20.46
2019-04-29T09:55:09.832Z,20.61
2019-04-29T09:57:39.795Z,20.28
2019-04-29T10:00:21.935Z,19.72
2019-04-29T10:03:03.103Z,19.72
2019-04-29T10:05:54.872Z,19.85
2019-04-29T10:08:26.294Z,20.16
2019-04-29T10:10:56.263Z,20.92
2019-04-29T10:13:26.174Z,20.92
2019-04-29T10:16:08.087Z,20.90
2019-04-29T10:18:45.630Z,20.71
2019-04-29T10:21:20.956Z,20.71
2019-04-29T10:23:49.285Z,20.57
2019-04-29T10:26:19.243Z,20.35
2019-04-29T10:28:59.002Z,20.26
2019-04-29T10:31:28.756Z,20.28
2019-04-29T10:33:58.686Z,20.18
2019-04-29T10:36:28.548Z,20.22
2019-04-29T10:39:02.523Z,20.49
2019-04-29T10:41:41.774Z,20.92
2019-04-29T10:44:37.407Z,21.26
2019-04-29T10:47:31.339Z,21.46
2019-04-29T10:50:05.369Z,21.70
2019-04-29T10:52:38.664Z,21.19
2019-04-29T10:55:08.543Z,20.77
2019-04-29T10:57:39.791Z,20.77
2019-04-29T11:00:21.770Z,20.80
2019-04-29T11:02:52.205Z,20.61
2019-04-29T11:05:32.257Z,20.81
2019-04-29T11:08:33.846Z,20.36
2019-04-29T11:11:03.716Z,20.26
2019-04-29T11:13:33.565Z,20.20
2019-04-29T11:16:03.397Z,20.33
2019-04-29T11:18:34.856Z,20.17
2019-04-29T11:21:04.891Z,20.17
2019-04-29T11:23:54.874Z,20.12
2019-04-29T11:26:39.436Z,20.04
2019-04-29T11:29:09.611Z,20.15
2019-04-29T11:31:39.763Z,19.84
2019-04-29T11:34:39.184Z,19.93
2019-04-29T11:37:13.816Z,19.66
2019-04-29T11:39:46.210Z,19.35
2019-04-29T11:42:15.266Z,19.33
2019-04-29T11:44:45.192Z,19.47
2019-04-29T11:47:16.218Z,19.52
2019-04-29T11:49:54.940Z,19.64
2019-04-29T11:52:28.048Z,19.74
2019-04-29T11:54:56.092Z,19.80
2019-04-29T11:57:41.475Z,19.94
2019-04-29T12:00:37.797Z,19.73
2019-04-29T12:03:14.356Z,19.53
2019-04-29T12:05:45.229Z,19.58
2019-04-29T12:08:16.948Z,19.92
2019-04-29T12:11:05.530Z,19.75
2019-04-29T12:13:30.683Z,19.69
2019-04-29T12:16:09.818Z,19.48
2019-04-29T12:18:48.393Z,19.20
2019-04-29T12:21:31.164Z,18.95
2019-04-29T12:24:02.040Z,19.43
2019-04-29T12:26:35.512Z,19.43
2019-04-29T12:29:04.394Z,19.93
2019-04-29T12:31:49.419Z,20.55
2019-04-29T12:34:37.712Z,20.93
2019-04-29T12:37:17.507Z,20.76
2019-04-29T12:40:09.777Z,20.58
2019-04-29T12:43:00.100Z,20.58
2019-04-29T12:45:44.000Z,21.34
2019-04-29T12:48:24.383Z,21.80
2019-04-29T12:50:46.462Z,21.55
2019-04-29T12:53:16.219Z,22.15
2019-04-29T12:55:51.547Z,22.14
2019-04-29T12:58:23.908Z,22.66
2019-04-29T13:00:59.896Z,21.98
2019-04-29T13:03:40.075Z,21.96
2019-04-29T13:06:24.117Z,22.06
2019-04-29T13:08:55.577Z,22.63
2019-04-29T13:11:37.479Z,21.86
2019-04-29T13:14:01.616Z,21.61
2019-04-29T13:16:55.671Z,21.48
2019-04-29T13:19:31.853Z,21.08
2019-04-29T13:22:02.952Z,21.37
2019-04-29T13:24:32.756Z,22.54
2019-04-29T13:27:15.604Z,22.75
2019-04-29T13:29:36.140Z,22.55
2019-04-29T13:32:06.102Z,22.75
2019-04-29T13:34:40.019Z,22.63
2019-04-29T13:37:18.361Z,22.92
2019-04-29T13:39:41.470Z,22.42
2019-04-29T13:42:15.383Z,21.99
2019-04-29T13:45:04.507Z,22.12
2019-04-29T13:47:32.228Z,21.61
2019-04-29T13:50:18.895Z,21.52
2019-04-29T13:52:41.419Z,22.05
2019-04-29T13:55:17.700Z,21.79
2019-04-29T13:57:45.025Z,22.62
2019-04-29T14:00:36.270Z,22.34
2019-04-29T14:03:12.762Z,22.63
2019-04-29T14:05:42.635Z,22.35
2019-04-29T14:08:12.418Z,22.44
2019-04-29T14:10:42.130Z,22.00
2019-04-29T14:13:16.825Z,22.66
2019-04-29T14:15:43.910Z,22.86
2019-04-29T14:18:14.125Z,22.61
2019-04-29T14:20:47.292Z,22.05
2019-04-29T14:23:16.748Z,21.38
2019-04-29T14:25:46.580Z,21.16
2019-04-29T14:28:16.339Z,22.25
2019-04-29T14:30:47.642Z,22.24
2019-04-29T14:33:24.392Z,22.59
2019-04-29T14:36:08.161Z,22.19
2019-04-29T14:38:40.644Z,21.92
2019-04-29T14:41:09.800Z,21.54
2019-04-29T14:43:57.039Z,22.67
2019-04-29T14:46:44.374Z,23.16
2019-04-29T14:49:26.557Z,22.72
2019-04-29T14:51:56.370Z,21.67
2019-04-29T14:54:26.183Z,21.08
2019-04-29T14:56:56.144Z,20.95
2019-04-29T14:59:26.067Z,20.59
2019-04-29T15:02:16.217Z,20.65
2019-04-29T15:04:45.134Z,21.16
2019-04-29T15:07:14.934Z,21.75
2019-04-29T15:09:58.369Z,21.93
2019-04-29T15:13:18.312Z,21.53
2019-04-29T15:15:43.997Z,21.38
2019-04-29T15:18:29.368Z,20.75
2019-04-29T15:21:01.744Z,21.15
2019-04-29T15:23:32.788Z,21.09
2019-04-29T15:26:01.138Z,21.06
2019-04-29T15:28:34.036Z,20.88
2019-04-29T15:31:07.859Z,20.89
2019-04-29T15:33:35.842Z,20.84
2019-04-29T15:36:05.609Z,20.24
2019-04-29T15:38:35.569Z,20.06
2019-04-29T15:41:06.013Z,20.06
2019-04-29T15:43:47.223Z,20.72
2019-04-29T15:46:11.370Z,20.65
2019-04-29T15:48:40.519Z,20.65
2019-04-29T15:51:13.955Z,20.28
2019-04-29T15:53:42.002Z,19.95
2019-04-29T15:56:27.634Z,19.95
2019-04-29T15:58:43.343Z,19.43
2019-04-29T16:01:17.905Z,19.25
2019-04-29T16:03:49.852Z,19.08
2019-04-29T16:06:33.902Z,18.64
2019-04-29T16:09:23.759Z,18.19
2019-04-29T16:12:15.403Z,18.03
2019-04-29T16:14:48.567Z,18.29
2019-04-29T16:17:20.283Z,18.12
2019-04-29T16:19:48.239Z,17.54
2019-04-29T16:22:20.056Z,17.56
2019-04-29T16:24:50.014Z,17.54
2019-04-29T16:27:19.876Z,17.28
2019-04-29T16:29:51.717Z,17.02
2019-04-29T16:32:30.780Z,16.89
2019-04-29T16:35:00.547Z,17.06
2019-04-29T16:37:31.934Z,16.97
2019-04-29T16:40:01.970Z,16.73
2019-04-29T16:42:51.621Z,16.70
2019-04-29T16:45:25.083Z,16.51
2019-04-29T16:47:54.888Z,16.44
2019-04-29T16:50:24.709Z,16.42
2019-04-29T16:52:54.703Z,16.15
2019-04-29T16:55:24.555Z,16.17
2019-04-29T16:57:59.793Z,15.98
2019-04-29T17:00:28.962Z,16.03
2019-04-29T17:02:58.704Z,15.80
2019-04-29T17:05:28.623Z,15.71
2019-04-29T17:07:58.568Z,15.61
2019-04-29T17:10:50.127Z,15.62
2019-04-29T17:13:23.718Z,15.50
2019-04-29T17:15:52.571Z,15.53
2019-04-29T17:18:23.230Z,15.36
2019-04-29T17:20:53.001Z,15.33
2019-04-29T17:23:24.401Z,15.40
2019-04-29T17:25:54.569Z,15.33
2019-04-29T17:28:33.576Z,15.28
2019-04-29T17:31:17.553Z,15.25
2019-04-29T17:33:51.379Z,15.21
2019-04-29T17:36:23.954Z,15.22
2019-04-29T17:38:53.058Z,15.15
2019-04-29T17:41:23.079Z,15.15
2019-04-29T17:44:14.672Z,15.12
2019-04-29T17:47:11.592Z,15.08
2019-04-29T17:50:06.102Z,15.12
2019-04-29T17:52:35.263Z,15.02
2019-04-29T17:55:37.657Z,15.00
2019-04-29T17:58:10.071Z,14.96
2019-04-29T18:01:00.820Z,14.87
2019-04-29T18:03:50.298Z,14.95
2019-04-29T18:06:28.350Z,14.93
2019-04-29T18:09:29.480Z,14.90
2019-04-29T18:12:02.440Z,14.89
2019-04-29T18:14:37.800Z,14.83
2019-04-29T18:17:05.024Z,14.85
2019-04-29T18:19:56.471Z,14.85
2019-04-29T18:22:47.884Z,14.80
2019-04-29T18:25:33.100Z,14.81
2019-04-29T18:28:05.261Z,14.85
2019-04-29T18:30:37.976Z,14.85
2019-04-29T18:33:06.805Z,14.81
2019-04-29T18:35:36.689Z,14.83
2019-04-29T18:38:07.495Z,14.79
2019-04-29T18:40:42.048Z,14.81
2019-04-29T18:43:09.514Z,14.79
2019-04-29T18:45:39.697Z,14.73
2019-04-29T18:48:16.542Z,14.77
2019-04-29T18:50:42.145Z,14.70
2019-04-29T18:53:12.055Z,14.74
2019-04-29T18:55:42.037Z,14.71
2019-04-29T18:58:11.991Z,14.69
2019-04-29T19:00:46.157Z,14.73
2019-04-29T19:03:17.223Z,14.73
2019-04-29T19:05:50.373Z,14.69
2019-04-29T19:08:23.487Z,14.68
2019-04-29T19:10:52.346Z,14.64
2019-04-29T19:13:22.248Z,14.66
2019-04-29T19:15:52.472Z,14.66
2019-04-29T19:18:25.351Z,14.65
2019-04-29T19:20:56.962Z,14.67
2019-04-29T19:23:29.480Z,14.65
2019-04-29T19:25:58.069Z,14.64
2019-04-29T19:28:31.048Z,14.63
2019-04-29T19:31:03.371Z,14.60
2019-04-29T19:33:37.933Z,14.36
2019-04-29T19:36:06.790Z,14.15
2019-04-29T19:38:36.006Z,13.84
2019-04-29T19:41:06.000Z,13.78
2019-04-29T19:43:36.025Z,13.84
2019-04-29T19:46:05.982Z,13.81
2019-04-29T19:48:36.687Z,13.74
2019-04-29T19:51:14.518Z,13.59
2019-04-29T19:53:42.502Z,13.44
2019-04-29T19:56:12.622Z,13.43
2019-04-29T19:58:41.899Z,13.28
2019-04-29T20:01:23.354Z,13.21
2019-04-29T20:03:57.653Z,13.23
2019-04-29T20:06:30.327Z,13.22
2019-04-29T20:09:01.762Z,13.29
2019-04-29T20:11:34.341Z,13.31
2019-04-29T20:14:06.439Z,13.27
2019-04-29T20:17:13.055Z,13.28
2019-04-29T20:20:00.066Z,13.30
2019-04-29T20:22:27.652Z,13.26
2019-04-29T20:24:57.999Z,13.26
2019-04-29T20:27:30.783Z,13.23
2019-04-29T20:29:59.659Z,13.16
2019-04-29T20:32:32.135Z,13.11
2019-04-29T20:35:07.038Z,12.99
2019-04-29T20:37:33.696Z,13.01
2019-04-29T20:40:05.578Z,13.03
2019-04-29T20:42:35.836Z,13.00
2019-04-29T20:45:06.244Z,12.99
2019-04-29T20:47:40.438Z,12.93
2019-04-29T20:50:08.841Z,12.90
2019-04-29T20:52:45.392Z,12.94
2019-04-29T20:55:16.178Z,12.92
2019-04-29T20:57:47.975Z,12.93
2019-04-29T21:00:20.173Z,12.97
2019-04-29T21:02:50.710Z,13.02
2019-04-29T21:05:24.450Z,13.00
2019-04-29T21:08:02.517Z,13.02
2019-04-29T21:10:25.182Z,12.96
2019-04-29T21:13:20.483Z,12.94
2019-04-29T21:15:55.738Z,12.98
2019-04-29T21:18:27.079Z,12.98
2019-04-29T21:20:59.570Z,12.94
2019-04-29T21:23:31.603Z,12.94
2019-04-29T21:26:00.414Z,12.97
2019-04-29T21:28:31.478Z,12.94
2019-04-29T21:31:05.137Z,13.00
2019-04-29T21:33:35.489Z,12.94
2019-04-29T21:36:26.574Z,13.00
2019-04-29T21:39:15.323Z,12.98
2019-04-29T21:41:55.497Z,13.01
2019-04-29T21:44:23.675Z,13.01
2019-04-29T21:46:55.269Z,13.03
2019-04-29T21:49:25.787Z,13.03
2019-04-29T21:51:55.750Z,13.06
2019-04-29T21:54:25.533Z,13.05
2019-04-29T21:56:55.645Z,13.05
2019-04-29T21:59:25.823Z,13.06
2019-04-29T22:01:56.464Z,13.09
2019-04-29T22:04:27.330Z,13.07
2019-04-29T22:06:59.823Z,13.10
2019-04-29T22:09:36.065Z,13.13
2019-04-29T22:12:00.926Z,13.13
2019-04-29T22:14:30.891Z,13.11
2019-04-29T22:17:00.819Z,13.09
2019-04-29T22:19:30.637Z,13.10
2019-04-29T22:22:01.611Z,13.16
2019-04-29T22:24:31.529Z,13.16
2019-04-29T22:27:04.050Z,13.15
2019-04-29T22:29:37.255Z,13.13
2019-04-29T22:32:07.836Z,13.13
2019-04-29T22:34:36.504Z,13.11
2019-04-29T22:37:06.679Z,13.10
2019-04-29T22:39:36.421Z,13.08
2019-04-29T22:42:35.493Z,13.07
2019-04-29T22:45:06.337Z,13.04
2019-04-29T22:47:36.153Z,13.05
2019-04-29T22:50:06.599Z,12.95
2019-04-29T22:52:36.838Z,12.91
2019-04-29T22:55:07.075Z,12.96
2019-04-29T22:57:36.976Z,13.00
2019-04-29T23:00:07.276Z,13.05
2019-04-29T23:02:37.160Z,13.03
2019-04-29T23:05:07.346Z,13.06
2019-04-29T23:07:37.783Z,13.02
2019-04-29T23:10:08.541Z,13.07
2019-04-29T23:12:38.714Z,13.09
2019-04-29T23:15:08.938Z,13.15
2019-04-29T23:17:42.579Z,13.03
2019-04-29T23:20:41.097Z,12.96
2019-04-29T23:23:15.623Z,12.76
2019-04-29T23:25:48.895Z,12.57
2019-04-29T23:28:22.243Z,12.53
2019-04-29T23:30:52.150Z,12.19
2019-04-29T23:33:23.915Z,12.13
2019-04-29T23:35:53.126Z,12.26
2019-04-29T23:38:22.932Z,12.25
2019-04-29T23:40:54.515Z,12.22
2019-04-29T23:43:28.084Z,12.23
2019-04-29T23:45:57.004Z,12.01
2019-04-29T23:48:38.740Z,12.09
2019-04-29T23:50:58.993Z,12.21
2019-04-29T23:53:28.906Z,12.11
2019-04-29T23:56:00.328Z,12.04
2019-04-29T23:58:46.818Z,12.05
